createdAt,value
2022-09-27T00:01:43.818Z,94562.59
2022-09-27T00:04:12.991Z,94636.59
2022-09-27T00:06:41.291Z,94620.66
2022-09-27T00:09:10.828Z,94608.19
2022-09-27T00:11:42.847Z,94619.91
2022-09-27T00:14:13.642Z,94623.22
2022-09-27T00:16:43.937Z,94617.38
2022-09-27T00:19:15.367Z,94620.72
2022-09-27T00:21:44.843Z,94608.38
2022-09-27T00:24:14.367Z,94583.25
2022-09-27T00:26:44.015Z,94594.94
2022-09-27T00:29:12.421Z,94593.84
2022-09-27T00:31:41.398Z,94585.94
2022-09-27T00:34:17.934Z,94591.78
2022-09-27T00:36:46.152Z,94599.66
2022-09-27T00:39:14.897Z,94599.13
2022-09-27T00:41:45.630Z,94603.03
2022-09-27T00:44:59.578Z,94596.28
2022-09-27T00:47:34.534Z,94594.72
2022-09-27T00:50:10.112Z,94587.84
2022-09-27T00:52:45.056Z,94585.16
2022-09-27T00:55:17.912Z,94580.53
2022-09-27T00:57:49.406Z,94576.78
2022-09-27T01:00:18.728Z,94577.13
2022-09-27T01:02:50.617Z,94571.78
2022-09-27T01:05:22.048Z,94562.31
2022-09-27T01:07:50.336Z,94554.03
2022-09-27T01:10:22.942Z,94541.59
2022-09-27T01:13:02.772Z,94543.72
2022-09-27T01:15:39.446Z,94548.94
2022-09-27T01:18:22.497Z,94538.38
2022-09-27T01:21:22.499Z,94524.50
2022-09-27T01:24:08.126Z,94525.63
2022-09-27T01:26:55.958Z,94517.22
2022-09-27T01:29:37.864Z,94531.28
2022-09-27T01:32:14.467Z,94526.19
2022-09-27T01:34:47.448Z,94522.53
2022-09-27T01:37:23.719Z,94530.63
2022-09-27T01:40:00.290Z,94532.81
2022-09-27T01:42:34.347Z,94529.38
2022-09-27T01:45:07.942Z,94535.50
2022-09-27T01:47:45.181Z,94540.19
2022-09-27T01:50:18.075Z,94525.47
2022-09-27T01:52:51.762Z,94516.22
2022-09-27T01:55:24.855Z,94529.44
2022-09-27T01:57:59.880Z,94528.03
2022-09-27T02:00:28.443Z,94517.06
2022-09-27T02:03:03.139Z,94505.94
2022-09-27T02:05:36.679Z,94503.28
2022-09-27T02:08:12.277Z,94411.53
2022-09-27T02:10:44.943Z,94511.44
2022-09-27T02:13:20.652Z,94508.66
2022-09-27T02:15:55.563Z,94505.75
2022-09-27T02:18:35.164Z,94505.38
2022-09-27T02:21:08.950Z,94488.28
2022-09-27T02:23:42.921Z,94479.09
2022-09-27T02:26:17.183Z,94475.03
2022-09-27T02:28:49.849Z,94403.16
2022-09-27T02:31:18.250Z,94472.97
2022-09-27T02:33:52.620Z,94478.38
2022-09-27T02:36:21.537Z,94465.72
2022-09-27T02:38:51.046Z,94419.06
2022-09-27T02:41:21.135Z,94482.50
2022-09-27T02:43:54.248Z,94467.13
2022-09-27T02:46:38.561Z,94471.28
2022-09-27T02:49:20.555Z,94462.66
2022-09-27T02:51:56.722Z,94464.00
2022-09-27T02:54:32.579Z,94466.88
2022-09-27T02:57:10.737Z,94464.22
2022-09-27T02:59:48.886Z,94480.16
2022-09-27T03:02:27.706Z,94464.19
2022-09-27T03:05:01.063Z,94452.78
2022-09-27T03:07:29.457Z,94466.66
2022-09-27T03:09:57.726Z,94464.97
2022-09-27T03:12:27.289Z,94462.13
2022-09-27T03:14:57.796Z,94453.72
2022-09-27T03:17:26.472Z,94434.72
2022-09-27T03:19:56.173Z,94444.44
2022-09-27T03:22:24.441Z,94447.88
2022-09-27T03:24:52.825Z,94445.31
2022-09-27T03:27:21.138Z,94438.91
2022-09-27T03:29:49.369Z,94440.88
2022-09-27T03:32:18.188Z,94418.31
2022-09-27T03:34:46.547Z,94351.31
2022-09-27T03:37:16.239Z,94401.72
2022-09-27T03:39:44.440Z,94440.22
2022-09-27T03:42:12.800Z,94431.78
2022-09-27T03:44:41.110Z,94437.41
2022-09-27T03:47:09.374Z,94386.91
2022-09-27T03:49:37.689Z,94426.19
2022-09-27T03:52:05.913Z,94427.63
2022-09-27T03:54:35.605Z,94369.94
2022-09-27T03:57:03.869Z,94420.69
2022-09-27T03:59:32.115Z,94417.50
2022-09-27T04:02:00.523Z,94421.72
2022-09-27T04:04:29.260Z,94436.00
2022-09-27T04:06:57.833Z,94411.72
2022-09-27T04:09:26.219Z,94410.50
2022-09-27T04:11:55.911Z,94414.94
2022-09-27T04:14:24.190Z,94416.28
2022-09-27T04:16:52.622Z,94379.50
2022-09-27T04:19:20.994Z,94419.72
2022-09-27T04:21:49.293Z,94413.91
2022-09-27T04:24:17.609Z,94417.81
2022-09-27T04:26:46.009Z,94430.09
2022-09-27T04:29:16.143Z,94456.94
2022-09-27T04:31:45.404Z,94456.47
2022-09-27T04:34:13.758Z,94434.56
2022-09-27T04:36:40.994Z,94429.28
2022-09-27T04:39:10.980Z,94432.88
2022-09-27T04:41:40.274Z,94374.34
2022-09-27T04:44:08.564Z,94414.19
2022-09-27T04:46:38.351Z,94417.97
2022-09-27T04:49:06.659Z,94399.00
2022-09-27T04:51:34.914Z,94402.44
2022-09-27T04:54:03.215Z,94409.19
2022-09-27T04:56:31.481Z,94407.75
2022-09-27T04:58:59.784Z,94416.84
2022-09-27T05:01:28.076Z,94424.63
2022-09-27T05:03:57.909Z,94419.75
2022-09-27T05:06:26.163Z,94417.53
2022-09-27T05:08:54.617Z,94398.56
2022-09-27T05:11:23.401Z,94404.53
2022-09-27T05:13:51.669Z,94375.59
2022-09-27T05:16:20.270Z,94433.81
2022-09-27T05:18:48.603Z,94416.50
2022-09-27T05:21:18.613Z,94417.19
2022-09-27T05:23:47.991Z,94415.72
2022-09-27T05:26:16.494Z,94402.81
2022-09-27T05:28:46.160Z,94394.31
2022-09-27T05:31:14.708Z,94254.88
2022-09-27T05:33:43.187Z,94411.34
2022-09-27T05:36:12.207Z,94406.16
2022-09-27T05:38:43.617Z,94377.03
2022-09-27T05:41:11.926Z,94379.28
2022-09-27T05:43:40.317Z,94357.94
2022-09-27T05:46:08.796Z,94397.69
2022-09-27T05:48:37.156Z,94415.81
2022-09-27T05:51:06.228Z,94411.41
2022-09-27T05:53:34.589Z,94412.41
2022-09-27T05:56:05.252Z,94412.78
2022-09-27T05:58:34.619Z,94390.41
2022-09-27T06:01:02.928Z,94412.41
2022-09-27T06:03:31.226Z,94415.88
2022-09-27T06:06:03.949Z,94396.53
2022-09-27T06:08:34.979Z,94228.97
2022-09-27T06:11:07.131Z,94408.25
2022-09-27T06:13:37.436Z,94405.13
2022-09-27T06:16:06.887Z,94403.56
2022-09-27T06:18:35.203Z,94403.53
2022-09-27T06:21:05.386Z,94409.66
2022-09-27T06:23:34.127Z,94414.38
2022-09-27T06:26:03.867Z,94329.34
2022-09-27T06:28:35.666Z,94411.56
2022-09-27T06:31:06.418Z,94416.97
2022-09-27T06:33:35.059Z,94417.03
2022-09-27T06:36:03.971Z,94421.63
2022-09-27T06:38:33.010Z,94410.44
2022-09-27T06:41:03.604Z,94413.69
2022-09-27T06:43:34.262Z,94415.53
2022-09-27T06:46:05.968Z,94405.13
2022-09-27T06:48:36.293Z,94415.97
2022-09-27T06:51:05.007Z,94401.59
2022-09-27T06:53:33.401Z,94270.94
2022-09-27T06:56:02.140Z,94413.59
2022-09-27T06:58:47.828Z,94381.13
2022-09-27T07:01:18.289Z,94399.31
2022-09-27T07:03:51.589Z,94415.25
2022-09-27T07:06:23.008Z,94411.31
2022-09-27T07:08:53.337Z,94413.78
2022-09-27T07:11:23.619Z,94436.31
2022-09-27T07:13:52.242Z,94416.63
2022-09-27T07:16:22.136Z,94419.34
2022-09-27T07:18:51.671Z,94422.78
2022-09-27T07:21:19.971Z,94414.56
2022-09-27T07:23:48.656Z,94423.13
2022-09-27T07:26:17.069Z,94431.63
2022-09-27T07:28:46.118Z,94416.66
2022-09-27T07:31:14.869Z,94295.38
2022-09-27T07:33:44.625Z,94429.16
2022-09-27T07:36:14.020Z,94421.00
2022-09-27T07:38:42.553Z,94411.66
2022-09-27T07:41:14.256Z,94419.88
2022-09-27T07:43:42.576Z,94400.41
2022-09-27T07:46:11.293Z,94421.00
2022-09-27T07:48:39.600Z,94411.84
2022-09-27T07:51:11.045Z,94415.91
2022-09-27T07:53:40.777Z,94405.44
2022-09-27T07:56:09.606Z,94417.13
2022-09-27T07:58:37.812Z,94395.41
2022-09-27T08:01:06.176Z,94420.81
2022-09-27T08:03:35.056Z,94368.00
2022-09-27T08:06:05.567Z,94413.50
2022-09-27T08:08:35.184Z,94391.56
2022-09-27T08:11:03.441Z,94396.78
2022-09-27T08:13:31.738Z,94309.22
2022-09-27T08:16:03.458Z,94395.72
2022-09-27T08:18:31.755Z,94382.81
2022-09-27T08:21:01.235Z,94383.28
2022-09-27T08:23:29.767Z,94401.88
2022-09-27T08:26:00.019Z,94361.38
2022-09-27T08:28:28.680Z,94399.16
2022-09-27T08:30:59.340Z,94382.00
2022-09-27T08:33:32.017Z,94414.50
2022-09-27T08:36:01.951Z,94395.53
2022-09-27T08:38:30.267Z,94405.25
2022-09-27T08:41:09.375Z,94232.66
2022-09-27T08:43:46.329Z,94372.44
2022-09-27T08:46:28.892Z,94366.13
2022-09-27T08:49:04.443Z,94371.00
2022-09-27T08:51:34.896Z,94367.72
2022-09-27T08:54:08.076Z,94365.75
2022-09-27T08:56:38.458Z,94356.66
2022-09-27T08:59:14.937Z,94340.69
2022-09-27T09:01:43.891Z,94351.66
2022-09-27T09:04:13.653Z,94351.00
2022-09-27T09:06:47.095Z,94347.06
2022-09-27T09:09:29.471Z,94338.28
2022-09-27T09:12:21.721Z,94293.00
2022-09-27T09:15:04.334Z,94324.78
2022-09-27T09:17:53.641Z,94336.88
2022-09-27T09:20:36.097Z,94332.84
2022-09-27T09:23:37.472Z,94339.50
2022-09-27T09:26:15.011Z,94333.72
2022-09-27T09:28:59.154Z,94297.09
2022-09-27T09:31:35.831Z,94307.91
2022-09-27T09:34:15.640Z,94318.88
2022-09-27T09:36:48.038Z,94308.53
2022-09-27T09:39:20.909Z,94300.94
2022-09-27T09:42:03.481Z,94281.06
2022-09-27T09:44:40.659Z,94274.63
2022-09-27T09:47:16.661Z,94293.13
2022-09-27T09:49:49.081Z,94303.75
2022-09-27T09:52:20.844Z,94304.69
2022-09-27T09:54:54.939Z,94303.13
2022-09-27T09:57:28.934Z,94290.19
2022-09-27T10:00:02.576Z,94280.09
2022-09-27T10:02:35.362Z,94286.63
2022-09-27T10:05:07.931Z,94277.16
2022-09-27T10:07:39.692Z,94247.81
2022-09-27T10:10:12.275Z,94286.50
2022-09-27T10:12:40.523Z,94273.00
2022-09-27T10:15:16.264Z,94195.88
2022-09-27T10:17:50.345Z,94263.34
2022-09-27T10:20:27.242Z,94251.03
2022-09-27T10:22:59.984Z,94242.63
2022-09-27T10:25:48.565Z,94247.75
2022-09-27T10:28:33.969Z,94227.16
2022-09-27T10:31:06.319Z,94233.88
2022-09-27T10:33:35.808Z,94229.66
2022-09-27T10:36:04.631Z,94227.72
2022-09-27T10:38:34.368Z,94214.78
2022-09-27T10:41:19.114Z,94216.38
2022-09-27T10:43:47.475Z,94205.91
2022-09-27T10:46:28.138Z,94219.13
2022-09-27T10:49:19.591Z,94184.28
2022-09-27T10:51:52.870Z,94163.69
2022-09-27T10:54:23.077Z,94214.50
2022-09-27T10:57:00.221Z,94197.06
2022-09-27T10:59:31.925Z,94196.31
2022-09-27T11:02:02.035Z,94212.56
2022-09-27T11:04:33.249Z,94205.22
2022-09-27T11:07:15.904Z,94185.84
2022-09-27T11:09:50.245Z,94205.59
2022-09-27T11:12:20.894Z,94183.53
2022-09-27T11:14:57.481Z,94187.03
2022-09-27T11:17:40.731Z,94199.03
2022-09-27T11:20:31.163Z,94204.81
2022-09-27T11:23:15.664Z,94212.94
2022-09-27T11:25:57.724Z,94204.00
2022-09-27T11:28:37.618Z,94199.03
2022-09-27T11:31:19.412Z,94192.81
2022-09-27T11:34:01.573Z,94198.28
2022-09-27T11:36:44.007Z,94167.66
2022-09-27T11:39:21.149Z,94200.19
2022-09-27T11:42:07.392Z,94205.63
2022-09-27T11:45:02.989Z,94205.63
2022-09-27T11:47:50.345Z,94202.88
2022-09-27T11:50:47.265Z,94192.41
2022-09-27T11:53:29.450Z,94189.72
2022-09-27T11:56:09.060Z,94190.91
2022-09-27T11:58:48.676Z,94185.03
2022-09-27T12:01:30.198Z,94166.06
2022-09-27T12:04:19.636Z,94162.19
2022-09-27T12:07:00.280Z,94161.47
2022-09-27T12:09:34.673Z,94084.78
2022-09-27T12:12:07.879Z,94155.66
2022-09-27T12:14:40.249Z,94155.25
2022-09-27T12:17:14.380Z,94141.69
2022-09-27T12:19:48.582Z,94143.66
2022-09-27T12:22:40.142Z,94152.94
2022-09-27T12:25:20.709Z,94150.53
2022-09-27T12:27:53.796Z,94144.31
2022-09-27T12:30:22.097Z,94162.75
2022-09-27T12:32:59.827Z,94164.84
2022-09-27T12:35:30.824Z,94092.47
2022-09-27T12:38:04.767Z,94149.81
2022-09-27T12:40:36.112Z,94158.97
2022-09-27T12:43:10.264Z,94168.97
2022-09-27T12:45:47.376Z,94157.34
2022-09-27T12:48:22.964Z,94138.09
2022-09-27T12:50:56.735Z,94151.69
2022-09-27T12:53:31.730Z,94143.63
2022-09-27T12:56:35.542Z,94129.69
2022-09-27T12:59:30.506Z,94126.59
2022-09-27T13:02:32.165Z,94109.53
2022-09-27T13:05:22.587Z,94126.38
2022-09-27T13:08:00.334Z,94119.63
2022-09-27T13:10:47.643Z,94105.47
2022-09-27T13:13:18.216Z,94101.03
2022-09-27T13:15:47.750Z,94093.88
2022-09-27T13:18:32.545Z,94098.66
2022-09-27T13:21:00.875Z,94093.44
2022-09-27T13:24:02.219Z,94108.72
2022-09-27T13:26:51.853Z,94090.28
2022-09-27T13:29:33.330Z,94108.88
2022-09-27T13:32:19.848Z,94095.44
2022-09-27T13:34:50.748Z,94117.13
2022-09-27T13:37:48.199Z,94022.28
2022-09-27T13:40:27.603Z,94101.88
2022-09-27T13:43:33.208Z,94083.28
2022-09-27T13:46:08.078Z,94102.50
2022-09-27T13:48:50.121Z,94100.13
2022-09-27T13:51:26.321Z,94094.00
2022-09-27T13:53:59.630Z,94110.41
2022-09-27T13:56:54.448Z,94102.25
2022-09-27T13:59:28.111Z,94093.72
2022-09-27T14:02:01.008Z,94100.50
2022-09-27T14:04:43.349Z,94040.53
2022-09-27T14:07:17.500Z,94100.97
2022-09-27T14:09:49.080Z,94091.72
2022-09-27T14:12:22.722Z,94096.91
2022-09-27T14:14:54.842Z,94093.31
2022-09-27T14:17:24.041Z,94082.38
2022-09-27T14:19:54.211Z,94062.31
2022-09-27T14:22:24.293Z,94061.56
2022-09-27T14:24:54.676Z,94026.31
2022-09-27T14:27:25.425Z,94089.41
2022-09-27T14:29:57.795Z,94074.34
2022-09-27T14:32:28.107Z,94087.78
2022-09-27T14:35:29.953Z,94086.97
2022-09-27T14:37:58.910Z,94093.81
2022-09-27T14:40:29.019Z,94089.03
2022-09-27T14:43:00.273Z,94082.78
2022-09-27T14:45:36.366Z,94091.28
2022-09-27T14:48:20.883Z,94103.91
2022-09-27T14:51:02.623Z,94106.69
2022-09-27T14:53:35.591Z,94108.00
2022-09-27T14:56:07.265Z,94098.59
2022-09-27T14:58:47.003Z,94060.47
2022-09-27T15:01:20.453Z,94080.25
2022-09-27T15:03:50.089Z,94037.56
2022-09-27T15:06:20.207Z,94108.56
2022-09-27T15:08:50.478Z,94108.16
2022-09-27T15:11:19.805Z,94075.84
2022-09-27T15:13:52.705Z,94103.81
2022-09-27T15:16:25.550Z,94109.94
2022-09-27T15:19:03.925Z,94135.91
2022-09-27T15:21:34.796Z,94141.59
2022-09-27T15:24:03.871Z,94161.78
2022-09-27T15:26:38.821Z,94142.53
2022-09-27T15:29:07.710Z,94154.16
2022-09-27T15:31:38.474Z,94178.81
2022-09-27T15:34:07.139Z,94204.06
2022-09-27T15:36:53.324Z,94219.94
2022-09-27T15:39:28.532Z,94209.22
2022-09-27T15:42:06.397Z,94191.19
2022-09-27T15:44:48.252Z,94143.66
2022-09-27T15:47:51.394Z,94191.00
2022-09-27T15:50:37.404Z,94191.16
2022-09-27T15:53:07.183Z,94190.28
2022-09-27T15:55:42.249Z,94179.31
2022-09-27T15:58:17.006Z,94144.66
2022-09-27T16:00:56.110Z,94182.34
2022-09-27T16:03:27.569Z,94181.69
2022-09-27T16:05:57.488Z,94185.75
2022-09-27T16:08:26.284Z,94195.09
2022-09-27T16:10:56.299Z,94208.66
2022-09-27T16:13:28.854Z,94217.31
2022-09-27T16:16:00.127Z,94201.44
2022-09-27T16:18:31.049Z,94214.50
2022-09-27T16:20:59.806Z,94237.94
2022-09-27T16:23:28.309Z,94228.16
2022-09-27T16:25:56.785Z,94220.31
2022-09-27T16:28:25.119Z,94171.81
2022-09-27T16:30:53.519Z,94228.03
2022-09-27T16:33:21.803Z,94209.31
2022-09-27T16:35:51.900Z,94190.81
2022-09-27T16:38:20.227Z,94212.31
2022-09-27T16:40:48.613Z,94216.16
2022-09-27T16:43:17.190Z,94126.59
2022-09-27T16:45:45.480Z,94205.66
2022-09-27T16:48:13.736Z,94212.13
2022-09-27T16:50:59.329Z,94227.88
2022-09-27T16:53:29.536Z,94227.91
2022-09-27T16:56:00.582Z,94206.13
2022-09-27T16:58:30.453Z,94208.47
2022-09-27T17:01:00.003Z,94195.19
2022-09-27T17:03:28.804Z,94187.66
2022-09-27T17:06:04.161Z,94176.88
2022-09-27T17:08:33.912Z,94194.25
2022-09-27T17:11:02.236Z,94197.53
2022-09-27T17:13:30.523Z,94209.22
2022-09-27T17:15:58.846Z,94219.66
2022-09-27T17:18:27.130Z,94226.22
2022-09-27T17:21:01.861Z,94230.63
2022-09-27T17:23:31.064Z,94230.94
2022-09-27T17:26:15.504Z,94221.06
2022-09-27T17:28:43.929Z,94235.78
2022-09-27T17:31:15.752Z,94182.72
2022-09-27T17:33:46.368Z,94239.66
2022-09-27T17:36:17.544Z,94269.53
2022-09-27T17:38:47.055Z,94294.00
2022-09-27T17:41:19.699Z,94308.09
2022-09-27T17:43:50.285Z,94255.06
2022-09-27T17:46:20.816Z,94343.50
2022-09-27T17:52:31.102Z,94339.22
2022-09-27T17:54:59.333Z,94322.41
2022-09-27T17:57:29.113Z,94329.16
2022-09-27T17:59:58.015Z,94330.81
2022-09-27T18:02:26.630Z,94311.88
2022-09-27T18:04:54.913Z,94304.63
2022-09-27T18:07:23.256Z,94306.94
2022-09-27T18:09:51.956Z,94318.84
2022-09-27T18:12:20.187Z,94305.84
2022-09-27T18:14:50.272Z,94153.94
2022-09-27T18:17:18.596Z,94310.44
2022-09-27T18:19:46.833Z,94307.44
2022-09-27T18:22:15.129Z,94318.59
2022-09-27T18:24:43.472Z,94326.41
2022-09-27T18:27:15.852Z,94335.22
2022-09-27T18:29:44.299Z,94325.69
2022-09-27T18:32:13.975Z,94332.03
2022-09-27T18:34:42.416Z,94322.84
2022-09-27T18:37:10.720Z,94344.34
2022-09-27T18:39:40.319Z,94345.63
2022-09-27T18:42:09.126Z,94338.56
2022-09-27T18:44:37.474Z,94273.78
2022-09-27T18:47:05.845Z,94336.41
2022-09-27T18:49:35.647Z,94350.09
2022-09-27T18:52:03.986Z,94343.66
2022-09-27T18:54:32.265Z,94193.16
2022-09-27T18:57:00.546Z,94342.53
2022-09-27T18:59:29.048Z,94350.03
2022-09-27T19:01:57.407Z,94344.69
2022-09-27T19:04:26.742Z,94367.94
2022-09-27T19:06:57.567Z,94364.03
2022-09-27T19:09:27.154Z,94347.19
2022-09-27T19:11:55.694Z,94356.34
2022-09-27T19:14:24.260Z,94384.50
2022-09-27T19:16:52.542Z,94225.19
2022-09-27T19:19:21.431Z,94385.94
2022-09-27T19:21:50.244Z,94383.34
2022-09-27T19:24:20.083Z,94371.19
2022-09-27T19:26:53.641Z,94385.91
2022-09-27T19:29:23.977Z,94228.91
2022-09-27T19:31:52.309Z,94361.44
2022-09-27T19:34:20.681Z,94381.28
2022-09-27T19:36:48.936Z,94294.50
2022-09-27T19:39:17.460Z,94324.56
2022-09-27T19:41:47.237Z,94397.13
2022-09-27T19:44:15.497Z,94410.06
2022-09-27T19:46:45.373Z,94419.78
2022-09-27T19:49:13.727Z,94402.06
2022-09-27T19:51:41.996Z,94405.41
2022-09-27T19:54:11.425Z,94392.78
2022-09-27T19:56:39.651Z,94399.19
2022-09-27T19:59:09.365Z,94395.00
2022-09-27T20:01:37.765Z,94398.88
2022-09-27T20:04:06.044Z,94402.97
2022-09-27T20:06:34.648Z,94402.81
2022-09-27T20:09:04.214Z,94404.88
2022-09-27T20:11:34.095Z,94401.00
2022-09-27T20:14:03.147Z,94395.59
2022-09-27T20:16:33.067Z,94397.88
2022-09-27T20:19:02.652Z,94402.13
2022-09-27T20:21:32.776Z,94403.75
2022-09-27T20:24:03.507Z,94415.63
2022-09-27T20:26:34.641Z,94403.03
2022-09-27T20:29:05.023Z,94413.47
2022-09-27T20:31:37.350Z,94389.47
2022-09-27T20:34:07.511Z,94406.09
2022-09-27T20:36:38.051Z,94346.16
2022-09-27T20:39:08.048Z,94422.09
2022-09-27T20:41:37.591Z,94427.56
2022-09-27T20:44:08.017Z,94417.94
2022-09-27T20:46:39.468Z,94438.34
2022-09-27T20:49:09.551Z,94410.16
2022-09-27T20:51:39.854Z,94431.25
2022-09-27T20:54:09.712Z,94418.31
2022-09-27T20:56:40.741Z,94440.84
2022-09-27T20:59:15.174Z,94451.06
2022-09-27T21:01:46.231Z,94444.00
2022-09-27T21:04:15.856Z,94428.31
2022-09-27T21:06:44.635Z,94393.44
2022-09-27T21:09:18.847Z,94446.38
2022-09-27T21:11:47.609Z,94439.78
2022-09-27T21:14:16.039Z,94307.78
2022-09-27T21:16:45.982Z,94399.03
2022-09-27T21:19:14.721Z,94424.06
2022-09-27T21:21:43.113Z,94438.16
2022-09-27T21:24:11.552Z,94445.22
2022-09-27T21:26:39.899Z,94445.94
2022-09-27T21:29:11.378Z,94453.50
2022-09-27T21:31:39.688Z,94442.53
2022-09-27T21:34:09.339Z,94434.28
2022-09-27T21:36:39.548Z,94424.22
2022-09-27T21:39:09.553Z,94431.91
2022-09-27T21:41:39.149Z,94397.72
2022-09-27T21:44:08.576Z,94439.66
2022-09-27T21:46:44.313Z,94447.00
2022-09-27T21:49:14.141Z,94450.38
2022-09-27T21:51:44.610Z,94447.25
2022-09-27T21:54:15.705Z,94438.84
2022-09-27T21:56:45.559Z,94452.50
2022-09-27T21:59:18.240Z,94463.59
2022-09-27T22:01:47.728Z,94461.75
2022-09-27T22:04:17.498Z,94342.88
2022-09-27T22:06:45.833Z,94399.22
2022-09-27T22:09:17.072Z,94440.72
2022-09-27T22:11:47.621Z,94453.16
2022-09-27T22:14:17.354Z,94454.50
2022-09-27T22:16:45.637Z,94453.81
2022-09-27T22:19:15.297Z,94461.63
2022-09-27T22:21:45.458Z,94460.53
2022-09-27T22:24:15.855Z,94466.16
2022-09-27T22:26:48.217Z,94448.34
2022-09-27T22:29:16.683Z,94429.25
2022-09-27T22:31:45.164Z,94437.50
2022-09-27T22:34:18.721Z,94443.56
2022-09-27T22:36:48.607Z,94440.09
2022-09-27T22:39:16.990Z,94443.97
2022-09-27T22:41:45.387Z,94439.66
2022-09-27T22:44:13.686Z,94428.00
2022-09-27T22:46:42.495Z,94437.72
2022-09-27T22:49:10.848Z,94450.78
2022-09-27T22:51:39.123Z,94439.00
2022-09-27T22:54:08.872Z,94427.13
2022-09-27T22:56:37.068Z,94448.22
2022-09-27T22:59:05.545Z,94460.03
2022-09-27T23:01:33.876Z,94452.78
2022-09-27T23:04:02.478Z,94456.25
2022-09-27T23:06:30.837Z,94447.91
2022-09-27T23:08:59.453Z,94448.59
2022-09-27T23:11:29.519Z,94457.22
2022-09-27T23:13:57.753Z,94472.69
2022-09-27T23:16:26.081Z,94478.94
2022-09-27T23:18:55.208Z,94415.03
2022-09-27T23:21:24.315Z,94434.28
2022-09-27T23:23:55.325Z,94458.84
2022-09-27T23:26:26.251Z,94460.22
2022-09-27T23:28:56.915Z,94407.91
2022-09-27T23:31:25.834Z,94470.44
2022-09-27T23:33:54.596Z,94472.97
2022-09-27T23:36:26.360Z,94474.28
2022-09-27T23:38:56.252Z,94486.66
2022-09-27T23:41:24.540Z,94483.97
2022-09-27T23:43:53.469Z,94482.41
2022-09-27T23:46:24.039Z,94486.09
2022-09-27T23:48:53.653Z,94475.75
2022-09-27T23:51:21.919Z,94474.09
2022-09-27T23:53:50.200Z,94484.53
2022-09-27T23:56:19.101Z,94478.84
2022-09-27T23:58:48.243Z,94492.56
